sensor_id;sensor_type;location;lat;lon;timestamp;pressure;altitude;pressure_sealevel;temperature;humidity
9855;BME280;4966;48.112;9.282;2022-09-09T00:01:26;94494.13;;;11.61;84.75
9855;BME280;4966;48.112;9.282;2022-09-09T00:06:45;94481.31;;;11.62;83.65
9855;BME280;4966;48.112;9.282;2022-09-09T00:09:21;94489.16;;;11.35;84.71
9855;BME280;4966;48.112;9.282;2022-09-09T00:11:54;94486.31;;;11.32;85.12
9855;BME280;4966;48.112;9.282;2022-09-09T00:14:39;94486.50;;;11.39;85.18
9855;BME280;4966;48.112;9.282;2022-09-09T00:17:31;94487.94;;;11.20;85.83
9855;BME280;4966;48.112;9.282;2022-09-09T00:20:12;94487.66;;;11.38;84.62
9855;BME280;4966;48.112;9.282;2022-09-09T00:22:40;94483.31;;;11.21;84.91
9855;BME280;4966;48.112;9.282;2022-09-09T00:25:23;94486.38;;;11.19;85.28
9855;BME280;4966;48.112;9.282;2022-09-09T00:27:53;94487.72;;;11.25;84.48
9855;BME280;4966;48.112;9.282;2022-09-09T00:30:22;94481.81;;;11.23;84.89
9855;BME280;4966;48.112;9.282;2022-09-09T00:32:52;94491.03;;;11.19;85.66
9855;BME280;4966;48.112;9.282;2022-09-09T00:35:36;94492.03;;;11.26;85.39
9855;BME280;4966;48.112;9.282;2022-09-09T00:38:12;94486.81;;;11.21;85.27
9855;BME280;4966;48.112;9.282;2022-09-09T00:43:32;94484.72;;;11.02;84.72
9855;BME280;4966;48.112;9.282;2022-09-09T00:48:53;94476.16;;;10.88;85.67
9855;BME280;4966;48.112;9.282;2022-09-09T00:57:18;94493.63;;;10.87;86.53
9855;BME280;4966;48.112;9.282;2022-09-09T00:59:52;94480.31;;;10.98;85.36
9855;BME280;4966;48.112;9.282;2022-09-09T01:05:29;94495.78;;;10.81;85.02
9855;BME280;4966;48.112;9.282;2022-09-09T01:08:01;94487.88;;;10.64;86.44
9855;BME280;4966;48.112;9.282;2022-09-09T01:10:47;94480.41;;;10.73;85.66
9855;BME280;4966;48.112;9.282;2022-09-09T01:13:24;94476.31;;;10.67;85.70
9855;BME280;4966;48.112;9.282;2022-09-09T01:15:50;94479.41;;;10.66;86.43
9855;BME280;4966;48.112;9.282;2022-09-09T01:18:20;94481.44;;;10.56;87.23
9855;BME280;4966;48.112;9.282;2022-09-09T01:23:41;94479.59;;;10.73;86.91
9855;BME280;4966;48.112;9.282;2022-09-09T01:26:17;94469.28;;;10.78;86.76
9855;BME280;4966;48.112;9.282;2022-09-09T01:28:48;94480.75;;;10.59;87.21
9855;BME280;4966;48.112;9.282;2022-09-09T01:31:37;94473.97;;;10.66;87.16
9855;BME280;4966;48.112;9.282;2022-09-09T01:34:09;94474.38;;;10.80;86.65
9855;BME280;4966;48.112;9.282;2022-09-09T01:36:40;94472.47;;;10.68;87.71
9855;BME280;4966;48.112;9.282;2022-09-09T01:39:07;94462.59;;;10.76;87.29
9855;BME280;4966;48.112;9.282;2022-09-09T01:41:33;94467.75;;;10.93;86.36
9855;BME280;4966;48.112;9.282;2022-09-09T01:43:58;94460.19;;;10.74;86.97
9855;BME280;4966;48.112;9.282;2022-09-09T01:46:24;94458.47;;;10.82;87.00
9855;BME280;4966;48.112;9.282;2022-09-09T01:48:51;94456.56;;;10.82;87.23
9855;BME280;4966;48.112;9.282;2022-09-09T01:51:18;94460.53;;;10.85;88.37
9855;BME280;4966;48.112;9.282;2022-09-09T01:53:44;94466.34;;;10.71;88.99
9855;BME280;4966;48.112;9.282;2022-09-09T01:59:14;94465.94;;;10.97;88.64
9855;BME280;4966;48.112;9.282;2022-09-09T02:04:43;94456.03;;;11.33;85.34
9855;BME280;4966;48.112;9.282;2022-09-09T02:09:54;94462.50;;;11.28;86.18
9855;BME280;4966;48.112;9.282;2022-09-09T02:12:24;94460.19;;;11.43;84.93
9855;BME280;4966;48.112;9.282;2022-09-09T02:14:55;94468.84;;;11.33;86.22
9855;BME280;4966;48.112;9.282;2022-09-09T02:17:27;94463.94;;;11.38;86.49
9855;BME280;4966;48.112;9.282;2022-09-09T02:20:00;94472.38;;;11.49;86.47
9855;BME280;4966;48.112;9.282;2022-09-09T02:22:29;94475.94;;;11.65;85.99
9855;BME280;4966;48.112;9.282;2022-09-09T02:25:00;94477.09;;;11.80;85.09
9855;BME280;4966;48.112;9.282;2022-09-09T02:27:25;94467.88;;;11.85;83.77
9855;BME280;4966;48.112;9.282;2022-09-09T02:29:51;94472.97;;;11.86;83.40
9855;BME280;4966;48.112;9.282;2022-09-09T02:32:21;94471.75;;;11.84;84.08
9855;BME280;4966;48.112;9.282;2022-09-09T02:34:51;94465.63;;;11.87;84.12
9855;BME280;4966;48.112;9.282;2022-09-09T02:37:20;94464.50;;;11.88;84.35
9855;BME280;4966;48.112;9.282;2022-09-09T02:39:47;94460.78;;;11.96;84.55
9855;BME280;4966;48.112;9.282;2022-09-09T02:42:12;94470.16;;;11.83;85.69
9855;BME280;4966;48.112;9.282;2022-09-09T02:44:40;94477.91;;;11.81;86.78
9855;BME280;4966;48.112;9.282;2022-09-09T02:47:26;94483.50;;;11.72;87.37
9855;BME280;4966;48.112;9.282;2022-09-09T02:55:07;94489.63;;;11.97;89.41
9855;BME280;4966;48.112;9.282;2022-09-09T02:57:37;94488.75;;;12.09;90.48
9855;BME280;4966;48.112;9.282;2022-09-09T03:00:04;94490.84;;;12.16;89.41
9855;BME280;4966;48.112;9.282;2022-09-09T03:02:30;94489.56;;;12.09;89.15
9855;BME280;4966;48.112;9.282;2022-09-09T03:04:56;94490.41;;;12.13;89.37
9855;BME280;4966;48.112;9.282;2022-09-09T03:07:21;94486.13;;;12.12;87.06
9855;BME280;4966;48.112;9.282;2022-09-09T03:09:47;94470.75;;;12.04;87.01
9855;BME280;4966;48.112;9.282;2022-09-09T03:12:12;94476.41;;;11.83;89.02
9855;BME280;4966;48.112;9.282;2022-09-09T03:14:38;94467.78;;;11.81;89.79
9855;BME280;4966;48.112;9.282;2022-09-09T03:17:05;94490.47;;;11.85;90.54
9855;BME280;4966;48.112;9.282;2022-09-09T03:19:31;94483.09;;;11.86;90.93
9855;BME280;4966;48.112;9.282;2022-09-09T03:21:57;94479.88;;;11.96;90.92
9855;BME280;4966;48.112;9.282;2022-09-09T03:24:23;94487.59;;;11.94;92.67
9855;BME280;4966;48.112;9.282;2022-09-09T03:26:49;94472.56;;;12.16;91.16
9855;BME280;4966;48.112;9.282;2022-09-09T03:29:16;94476.88;;;12.17;89.94
9855;BME280;4966;48.112;9.282;2022-09-09T03:31:42;94479.31;;;12.06;90.60
9855;BME280;4966;48.112;9.282;2022-09-09T03:34:08;94489.81;;;12.20;89.81
9855;BME280;4966;48.112;9.282;2022-09-09T03:36:34;94487.63;;;12.10;90.60
9855;BME280;4966;48.112;9.282;2022-09-09T03:38:59;94491.56;;;11.97;92.22
9855;BME280;4966;48.112;9.282;2022-09-09T03:41:25;94504.31;;;12.08;92.10
9855;BME280;4966;48.112;9.282;2022-09-09T03:43:52;94500.72;;;12.20;91.62
9855;BME280;4966;48.112;9.282;2022-09-09T03:46:20;94494.28;;;12.12;92.73
9855;BME280;4966;48.112;9.282;2022-09-09T03:48:46;94494.91;;;12.22;92.64
9855;BME280;4966;48.112;9.282;2022-09-09T03:51:12;94492.53;;;12.36;92.36
9855;BME280;4966;48.112;9.282;2022-09-09T03:53:38;94487.50;;;12.38;92.24
9855;BME280;4966;48.112;9.282;2022-09-09T03:56:04;94498.50;;;12.42;91.30
9855;BME280;4966;48.112;9.282;2022-09-09T03:58:32;94492.97;;;12.38;91.59
9855;BME280;4966;48.112;9.282;2022-09-09T04:01:04;94483.97;;;12.38;89.60
9855;BME280;4966;48.112;9.282;2022-09-09T04:03:30;94492.25;;;12.25;91.06
9855;BME280;4966;48.112;9.282;2022-09-09T04:05:57;94492.81;;;12.31;91.07
9855;BME280;4966;48.112;9.282;2022-09-09T04:08:23;94489.97;;;12.27;91.89
9855;BME280;4966;48.112;9.282;2022-09-09T04:10:53;94492.53;;;12.36;92.09
9855;BME280;4966;48.112;9.282;2022-09-09T04:13:21;94488.97;;;12.51;91.20
9855;BME280;4966;48.112;9.282;2022-09-09T04:15:58;94500.16;;;12.46;91.49
9855;BME280;4966;48.112;9.282;2022-09-09T04:18:24;94487.75;;;12.49;92.21
9855;BME280;4966;48.112;9.282;2022-09-09T04:20:52;94487.47;;;12.54;92.51
9855;BME280;4966;48.112;9.282;2022-09-09T04:23:19;94484.41;;;12.55;92.82
9855;BME280;4966;48.112;9.282;2022-09-09T04:25:50;94495.06;;;12.45;93.51
9855;BME280;4966;48.112;9.282;2022-09-09T04:28:17;94489.63;;;12.29;94.36
9855;BME280;4966;48.112;9.282;2022-09-09T04:30:43;94489.34;;;12.34;94.78
9855;BME280;4966;48.112;9.282;2022-09-09T04:33:10;94495.06;;;12.45;93.72
9855;BME280;4966;48.112;9.282;2022-09-09T04:35:36;94502.44;;;12.60;93.56
9855;BME280;4966;48.112;9.282;2022-09-09T04:38:02;94492.56;;;12.71;92.82
9855;BME280;4966;48.112;9.282;2022-09-09T04:40:29;94491.81;;;12.55;92.97
9855;BME280;4966;48.112;9.282;2022-09-09T04:42:57;94486.63;;;12.50;93.56
9855;BME280;4966;48.112;9.282;2022-09-09T04:45:22;94487.63;;;12.61;92.84
9855;BME280;4966;48.112;9.282;2022-09-09T04:47:48;94479.59;;;12.68;92.96
9855;BME280;4966;48.112;9.282;2022-09-09T04:50:14;94485.75;;;12.81;92.53
9855;BME280;4966;48.112;9.282;2022-09-09T04:52:39;94500.16;;;12.62;92.87
9855;BME280;4966;48.112;9.282;2022-09-09T04:55:06;94500.50;;;12.45;94.47
9855;BME280;4966;48.112;9.282;2022-09-09T04:57:32;94494.88;;;12.53;94.30
9855;BME280;4966;48.112;9.282;2022-09-09T04:59:58;94492.28;;;12.76;93.02
9855;BME280;4966;48.112;9.282;2022-09-09T05:02:26;94494.47;;;12.71;93.92
9855;BME280;4966;48.112;9.282;2022-09-09T05:04:51;94497.91;;;12.84;93.26
9855;BME280;4966;48.112;9.282;2022-09-09T05:07:16;94486.75;;;12.92;92.43
9855;BME280;4966;48.112;9.282;2022-09-09T05:09:42;94479.63;;;12.88;91.72
9855;BME280;4966;48.112;9.282;2022-09-09T05:12:08;94476.56;;;12.89;92.34
9855;BME280;4966;48.112;9.282;2022-09-09T05:14:33;94472.66;;;12.90;92.63
9855;BME280;4966;48.112;9.282;2022-09-09T05:17:01;94474.84;;;12.81;94.00
9855;BME280;4966;48.112;9.282;2022-09-09T05:19:26;94480.31;;;12.81;94.46
9855;BME280;4966;48.112;9.282;2022-09-09T05:21:52;94487.59;;;12.77;95.51
9855;BME280;4966;48.112;9.282;2022-09-09T05:24:17;94494.56;;;12.74;96.49
9855;BME280;4966;48.112;9.282;2022-09-09T05:26:43;94496.03;;;12.88;95.52
9855;BME280;4966;48.112;9.282;2022-09-09T05:29:09;94490.31;;;12.93;95.28
9855;BME280;4966;48.112;9.282;2022-09-09T05:31:34;94489.28;;;13.01;94.50
9855;BME280;4966;48.112;9.282;2022-09-09T05:34:00;94496.31;;;13.02;94.54
9855;BME280;4966;48.112;9.282;2022-09-09T05:36:25;94509.22;;;13.21;93.69
9855;BME280;4966;48.112;9.282;2022-09-09T05:38:51;94509.44;;;13.12;94.08
9855;BME280;4966;48.112;9.282;2022-09-09T05:41:19;94505.09;;;13.27;92.36
9855;BME280;4966;48.112;9.282;2022-09-09T05:43:45;94503.44;;;13.26;90.92
9855;BME280;4966;48.112;9.282;2022-09-09T05:46:14;94507.34;;;13.06;92.24
9855;BME280;4966;48.112;9.282;2022-09-09T05:48:45;94513.53;;;13.03;92.84
9855;BME280;4966;48.112;9.282;2022-09-09T05:51:20;94513.00;;;13.16;92.29
9855;BME280;4966;48.112;9.282;2022-09-09T05:53:47;94511.81;;;13.33;92.04
9855;BME280;4966;48.112;9.282;2022-09-09T05:56:31;94503.22;;;13.31;91.85
9855;BME280;4966;48.112;9.282;2022-09-09T05:58:57;94504.53;;;13.22;93.08
9855;BME280;4966;48.112;9.282;2022-09-09T06:01:27;94514.38;;;13.26;93.90
9855;BME280;4966;48.112;9.282;2022-09-09T06:03:52;94523.34;;;13.43;94.03
9855;BME280;4966;48.112;9.282;2022-09-09T06:06:23;94519.31;;;13.56;94.13
9855;BME280;4966;48.112;9.282;2022-09-09T06:08:51;94519.00;;;13.80;93.65
9855;BME280;4966;48.112;9.282;2022-09-09T06:11:23;94520.16;;;14.02;93.17
9855;BME280;4966;48.112;9.282;2022-09-09T06:13:49;94524.50;;;14.26;91.35
9855;BME280;4966;48.112;9.282;2022-09-09T06:16:19;94521.69;;;14.46;91.28
9855;BME280;4966;48.112;9.282;2022-09-09T06:18:45;94521.25;;;14.67;90.48
9855;BME280;4966;48.112;9.282;2022-09-09T06:21:22;94527.97;;;14.46;92.31
9855;BME280;4966;48.112;9.282;2022-09-09T06:23:49;94515.22;;;14.54;92.23
9855;BME280;4966;48.112;9.282;2022-09-09T06:26:23;94514.38;;;14.77;92.51
9855;BME280;4966;48.112;9.282;2022-09-09T06:28:50;94508.38;;;14.94;91.22
9855;BME280;4966;48.112;9.282;2022-09-09T06:31:17;94517.09;;;15.03;90.81
9855;BME280;4966;48.112;9.282;2022-09-09T06:33:46;94531.19;;;14.75;92.56
9855;BME280;4966;48.112;9.282;2022-09-09T06:36:14;94520.84;;;14.92;91.97
9855;BME280;4966;48.112;9.282;2022-09-09T06:38:41;94529.06;;;14.92;91.74
9855;BME280;4966;48.112;9.282;2022-09-09T06:41:08;94536.13;;;14.66;94.31
9855;BME280;4966;48.112;9.282;2022-09-09T06:43:34;94536.44;;;14.87;93.98
9855;BME280;4966;48.112;9.282;2022-09-09T06:46:03;94532.00;;;15.06;92.58
9855;BME280;4966;48.112;9.282;2022-09-09T06:48:29;94531.72;;;14.84;93.23
9855;BME280;4966;48.112;9.282;2022-09-09T06:51:05;94529.41;;;15.17;91.97
9855;BME280;4966;48.112;9.282;2022-09-09T06:53:33;94535.41;;;15.26;91.95
9855;BME280;4966;48.112;9.282;2022-09-09T06:56:13;94536.53;;;15.21;93.39
9855;BME280;4966;48.112;9.282;2022-09-09T06:58:42;94534.31;;;15.30;92.98
9855;BME280;4966;48.112;9.282;2022-09-09T07:01:14;94539.91;;;15.41;93.82
9855;BME280;4966;48.112;9.282;2022-09-09T07:03:41;94532.97;;;15.47;94.02
9855;BME280;4966;48.112;9.282;2022-09-09T07:06:14;94537.00;;;15.57;93.97
9855;BME280;4966;48.112;9.282;2022-09-09T07:08:40;94532.19;;;15.50;94.78
9855;BME280;4966;48.112;9.282;2022-09-09T07:11:07;94537.78;;;15.27;94.71
9855;BME280;4966;48.112;9.282;2022-09-09T07:13:34;94533.78;;;15.21;95.44
9855;BME280;4966;48.112;9.282;2022-09-09T07:16:09;94538.09;;;15.52;94.87
9855;BME280;4966;48.112;9.282;2022-09-09T07:18:34;94542.31;;;15.73;93.57
9855;BME280;4966;48.112;9.282;2022-09-09T07:21:01;94547.81;;;15.73;93.68
9855;BME280;4966;48.112;9.282;2022-09-09T07:23:27;94544.66;;;15.74;93.16
9855;BME280;4966;48.112;9.282;2022-09-09T07:25:53;94552.25;;;15.55;94.22
9855;BME280;4966;48.112;9.282;2022-09-09T07:28:20;94554.09;;;15.17;95.46
9855;BME280;4966;48.112;9.282;2022-09-09T07:31:05;94556.69;;;15.36;94.39
9855;BME280;4966;48.112;9.282;2022-09-09T07:33:34;94553.03;;;15.85;92.47
9855;BME280;4966;48.112;9.282;2022-09-09T07:36:04;94545.81;;;15.43;93.69
9855;BME280;4966;48.112;9.282;2022-09-09T07:38:30;94549.81;;;15.49;93.20
9855;BME280;4966;48.112;9.282;2022-09-09T07:41:04;94553.63;;;15.41;93.30
9855;BME280;4966;48.112;9.282;2022-09-09T07:43:30;94561.88;;;15.71;93.21
9855;BME280;4966;48.112;9.282;2022-09-09T07:45:59;94563.06;;;16.08;90.99
9855;BME280;4966;48.112;9.282;2022-09-09T07:48:27;94557.72;;;16.22;90.05
9855;BME280;4966;48.112;9.282;2022-09-09T07:50:52;94566.84;;;16.33;90.21
9855;BME280;4966;48.112;9.282;2022-09-09T07:53:17;94560.91;;;16.72;88.82
9855;BME280;4966;48.112;9.282;2022-09-09T07:55:43;94566.03;;;16.74;86.46
9855;BME280;4966;48.112;9.282;2022-09-09T07:58:08;94555.44;;;16.72;86.70
9855;BME280;4966;48.112;9.282;2022-09-09T08:00:33;94565.22;;;16.70;86.34
9855;BME280;4966;48.112;9.282;2022-09-09T08:02:59;94560.91;;;16.72;86.89
9855;BME280;4966;48.112;9.282;2022-09-09T08:05:27;94571.34;;;16.97;84.25
9855;BME280;4966;48.112;9.282;2022-09-09T08:07:52;94571.56;;;17.29;83.95
9855;BME280;4966;48.112;9.282;2022-09-09T08:10:17;94572.84;;;17.46;81.84
9855;BME280;4966;48.112;9.282;2022-09-09T08:12:43;94571.06;;;17.86;80.86
9855;BME280;4966;48.112;9.282;2022-09-09T08:15:09;94576.81;;;17.56;81.85
9855;BME280;4966;48.112;9.282;2022-09-09T08:17:34;94575.22;;;17.51;80.07
9855;BME280;4966;48.112;9.282;2022-09-09T08:19:59;94572.91;;;17.64;81.09
9855;BME280;4966;48.112;9.282;2022-09-09T08:22:29;94571.84;;;17.83;80.52
9855;BME280;4966;48.112;9.282;2022-09-09T08:24:54;94584.56;;;17.36;80.24
9855;BME280;4966;48.112;9.282;2022-09-09T08:27:20;94574.63;;;17.87;78.31
9855;BME280;4966;48.112;9.282;2022-09-09T08:29:46;94577.84;;;18.06;76.64
9855;BME280;4966;48.112;9.282;2022-09-09T08:32:12;94581.38;;;18.03;75.64
9855;BME280;4966;48.112;9.282;2022-09-09T08:34:38;94580.94;;;17.94;76.27
9855;BME280;4966;48.112;9.282;2022-09-09T08:37:03;94587.31;;;18.13;75.10
9855;BME280;4966;48.112;9.282;2022-09-09T08:39:29;94577.94;;;18.32;73.25
9855;BME280;4966;48.112;9.282;2022-09-09T08:45:04;94582.31;;;18.79;70.82
9855;BME280;4966;48.112;9.282;2022-09-09T08:50:29;94579.13;;;18.59;71.63
9855;BME280;4966;48.112;9.282;2022-09-09T08:53:02;94575.59;;;18.52;71.86
9855;BME280;4966;48.112;9.282;2022-09-09T08:55:40;94570.00;;;18.09;73.78
9855;BME280;4966;48.112;9.282;2022-09-09T08:58:18;94573.63;;;18.52;70.91
9855;BME280;4966;48.112;9.282;2022-09-09T09:00:56;94573.56;;;18.23;72.31
9855;BME280;4966;48.112;9.282;2022-09-09T09:06:19;94575.81;;;17.93;74.62
9855;BME280;4966;48.112;9.282;2022-09-09T09:09:01;94566.84;;;18.06;72.06
9855;BME280;4966;48.112;9.282;2022-09-09T09:11:48;94573.56;;;18.13;70.70
9855;BME280;4966;48.112;9.282;2022-09-09T09:14:21;94570.47;;;18.39;71.31
9855;BME280;4966;48.112;9.282;2022-09-09T09:19:20;94559.00;;;18.23;71.97
9855;BME280;4966;48.112;9.282;2022-09-09T09:24:19;94552.75;;;19.37;65.77
9855;BME280;4966;48.112;9.282;2022-09-09T09:26:45;94546.28;;;19.94;64.18
9855;BME280;4966;48.112;9.282;2022-09-09T09:29:17;94548.25;;;19.97;63.39
9855;BME280;4966;48.112;9.282;2022-09-09T09:31:45;94556.13;;;19.98;61.78
9855;BME280;4966;48.112;9.282;2022-09-09T09:34:13;94540.72;;;20.01;62.21
9855;BME280;4966;48.112;9.282;2022-09-09T09:36:44;94538.03;;;20.53;60.30
9855;BME280;4966;48.112;9.282;2022-09-09T09:39:32;94534.56;;;20.42;60.29
9855;BME280;4966;48.112;9.282;2022-09-09T09:42:16;94530.75;;;20.22;61.44
9855;BME280;4966;48.112;9.282;2022-09-09T09:44:42;94534.34;;;20.15;60.42
9855;BME280;4966;48.112;9.282;2022-09-09T09:47:19;94536.25;;;20.29;60.32
9855;BME280;4966;48.112;9.282;2022-09-09T09:49:52;94539.66;;;21.03;60.07
9855;BME280;4966;48.112;9.282;2022-09-09T09:52:22;94529.88;;;21.36;58.47
9855;BME280;4966;48.112;9.282;2022-09-09T09:54:49;94529.00;;;21.01;54.28
9855;BME280;4966;48.112;9.282;2022-09-09T09:57:16;94531.75;;;21.50;56.70
9855;BME280;4966;48.112;9.282;2022-09-09T09:59:42;94531.41;;;21.79;52.82
9855;BME280;4966;48.112;9.282;2022-09-09T10:02:22;94537.34;;;21.43;54.29
9855;BME280;4966;48.112;9.282;2022-09-09T10:05:21;94541.31;;;21.38;56.37
9855;BME280;4966;48.112;9.282;2022-09-09T10:08:09;94543.09;;;21.18;55.00
9855;BME280;4966;48.112;9.282;2022-09-09T10:15:52;94534.72;;;21.97;52.29
9855;BME280;4966;48.112;9.282;2022-09-09T10:18:46;94533.59;;;22.25;52.27
9855;BME280;4966;48.112;9.282;2022-09-09T10:34:56;94515.53;;;20.58;50.85
9855;BME280;4966;48.112;9.282;2022-09-09T10:39:50;94510.22;;;21.23;49.67
9855;BME280;4966;48.112;9.282;2022-09-09T10:42:26;94509.44;;;21.23;49.92
9855;BME280;4966;48.112;9.282;2022-09-09T10:45:15;94509.63;;;21.47;49.14
9855;BME280;4966;48.112;9.282;2022-09-09T10:48:23;94521.84;;;20.63;49.78
9855;BME280;4966;48.112;9.282;2022-09-09T10:51:18;94521.91;;;21.00;50.59
9855;BME280;4966;48.112;9.282;2022-09-09T10:56:38;94521.22;;;20.89;49.96
9855;BME280;4966;48.112;9.282;2022-09-09T11:01:59;94518.94;;;21.22;46.42
9855;BME280;4966;48.112;9.282;2022-09-09T11:07:31;94518.13;;;20.80;48.04
9855;BME280;4966;48.112;9.282;2022-09-09T11:10:07;94520.56;;;21.16;48.56
9855;BME280;4966;48.112;9.282;2022-09-09T11:12:45;94518.28;;;20.58;47.36
9855;BME280;4966;48.112;9.282;2022-09-09T11:15:20;94513.63;;;21.00;47.10
9855;BME280;4966;48.112;9.282;2022-09-09T11:17:55;94516.94;;;20.81;47.14
9855;BME280;4966;48.112;9.282;2022-09-09T11:20:22;94512.34;;;21.09;46.76
9855;BME280;4966;48.112;9.282;2022-09-09T11:25:26;94517.19;;;21.39;46.41
9855;BME280;4966;48.112;9.282;2022-09-09T11:44:40;94496.59;;;21.02;45.22
9855;BME280;4966;48.112;9.282;2022-09-09T11:47:26;94512.72;;;21.14;48.43
9855;BME280;4966;48.112;9.282;2022-09-09T11:50:07;94512.59;;;20.80;47.21
9855;BME280;4966;48.112;9.282;2022-09-09T11:52:44;94502.72;;;21.24;47.32
9855;BME280;4966;48.112;9.282;2022-09-09T11:58:03;94503.09;;;21.95;48.22
9855;BME280;4966;48.112;9.282;2022-09-09T12:00:36;94507.56;;;23.44;42.96
9855;BME280;4966;48.112;9.282;2022-09-09T12:03:03;94494.59;;;24.87;38.12
9855;BME280;4966;48.112;9.282;2022-09-09T12:05:44;94498.59;;;24.69;37.17
9855;BME280;4966;48.112;9.282;2022-09-09T12:08:16;94499.50;;;23.70;39.12
9855;BME280;4966;48.112;9.282;2022-09-09T12:10:55;94504.13;;;22.89;41.28
9855;BME280;4966;48.112;9.282;2022-09-09T12:13:23;94502.59;;;23.32;40.86
9855;BME280;4966;48.112;9.282;2022-09-09T12:15:54;94511.09;;;23.45;40.07
9855;BME280;4966;48.112;9.282;2022-09-09T12:18:23;94493.44;;;23.35;40.32
9855;BME280;4966;48.112;9.282;2022-09-09T12:20:57;94486.59;;;25.05;38.42
9855;BME280;4966;48.112;9.282;2022-09-09T12:23:32;94492.16;;;25.67;36.00
9855;BME280;4966;48.112;9.282;2022-09-09T12:28:59;94482.28;;;26.72;36.83
9855;BME280;4966;48.112;9.282;2022-09-09T12:31:34;94477.09;;;24.01;40.15
9855;BME280;4966;48.112;9.282;2022-09-09T12:36:55;94467.91;;;25.51;40.18
9855;BME280;4966;48.112;9.282;2022-09-09T12:41:53;94468.34;;;26.59;34.94
9855;BME280;4966;48.112;9.282;2022-09-09T12:44:22;94468.81;;;26.70;34.35
9855;BME280;4966;48.112;9.282;2022-09-09T12:46:48;94456.25;;;28.95;31.98
9855;BME280;4966;48.112;9.282;2022-09-09T12:49:28;94460.25;;;28.85;29.85
9855;BME280;4966;48.112;9.282;2022-09-09T12:51:56;94454.06;;;28.81;31.77
9855;BME280;4966;48.112;9.282;2022-09-09T12:54:22;94452.84;;;25.78;33.91
9855;BME280;4966;48.112;9.282;2022-09-09T12:56:49;94452.16;;;24.82;37.12
9855;BME280;4966;48.112;9.282;2022-09-09T12:59:26;94457.44;;;23.91;41.40
9855;BME280;4966;48.112;9.282;2022-09-09T13:01:56;94438.69;;;23.55;39.99
9855;BME280;4966;48.112;9.282;2022-09-09T13:04:21;94443.72;;;25.48;36.94
9855;BME280;4966;48.112;9.282;2022-09-09T13:06:47;94441.03;;;27.49;33.90
9855;BME280;4966;48.112;9.282;2022-09-09T13:09:14;94437.22;;;29.77;28.63
9855;BME280;4966;48.112;9.282;2022-09-09T13:11:46;94428.00;;;29.85;27.94
9855;BME280;4966;48.112;9.282;2022-09-09T13:14:17;94434.44;;;31.04;27.74
9855;BME280;4966;48.112;9.282;2022-09-09T13:16:58;94412.75;;;29.59;28.25
9855;BME280;4966;48.112;9.282;2022-09-09T13:19:24;94407.56;;;30.79;27.30
9855;BME280;4966;48.112;9.282;2022-09-09T13:21:54;94418.53;;;29.55;28.12
9855;BME280;4966;48.112;9.282;2022-09-09T13:24:32;94417.56;;;25.45;31.25
9855;BME280;4966;48.112;9.282;2022-09-09T13:27:00;94408.81;;;23.83;34.86
9855;BME280;4966;48.112;9.282;2022-09-09T13:29:27;94423.38;;;23.67;36.58
9855;BME280;4966;48.112;9.282;2022-09-09T13:31:54;94418.88;;;25.41;32.10
9855;BME280;4966;48.112;9.282;2022-09-09T13:34:30;94410.69;;;28.45;28.49
9855;BME280;4966;48.112;9.282;2022-09-09T13:37:06;94415.72;;;28.19;28.00
9855;BME280;4966;48.112;9.282;2022-09-09T13:39:51;94426.28;;;26.66;30.17
9855;BME280;4966;48.112;9.282;2022-09-09T13:42:27;94418.34;;;28.23;26.67
9855;BME280;4966;48.112;9.282;2022-09-09T13:44:54;94416.19;;;29.54;25.60
9855;BME280;4966;48.112;9.282;2022-09-09T13:47:35;94414.88;;;30.10;25.02
9855;BME280;4966;48.112;9.282;2022-09-09T13:50:30;94414.31;;;31.69;22.68
9855;BME280;4966;48.112;9.282;2022-09-09T13:52:59;94408.66;;;33.08;22.04
9855;BME280;4966;48.112;9.282;2022-09-09T13:55:28;94409.84;;;31.77;22.26
9855;BME280;4966;48.112;9.282;2022-09-09T13:57:59;94417.47;;;30.65;23.97
9855;BME280;4966;48.112;9.282;2022-09-09T14:00:30;94414.19;;;31.00;22.09
9855;BME280;4966;48.112;9.282;2022-09-09T14:02:56;94409.00;;;29.80;23.37
9855;BME280;4966;48.112;9.282;2022-09-09T14:05:21;94409.78;;;31.08;22.35
9855;BME280;4966;48.112;9.282;2022-09-09T14:07:48;94403.81;;;32.58;20.96
9855;BME280;4966;48.112;9.282;2022-09-09T14:10:14;94400.78;;;31.43;22.85
9855;BME280;4966;48.112;9.282;2022-09-09T14:12:39;94401.84;;;31.99;21.29
9855;BME280;4966;48.112;9.282;2022-09-09T14:15:06;94394.22;;;33.62;20.19
9855;BME280;4966;48.112;9.282;2022-09-09T14:17:32;94394.03;;;33.97;19.95
9855;BME280;4966;48.112;9.282;2022-09-09T14:19:58;94409.81;;;31.62;22.07
9855;BME280;4966;48.112;9.282;2022-09-09T14:22:24;94418.72;;;31.99;21.18
9855;BME280;4966;48.112;9.282;2022-09-09T14:24:50;94413.06;;;31.85;21.86
9855;BME280;4966;48.112;9.282;2022-09-09T14:27:16;94409.31;;;29.92;24.22
9855;BME280;4966;48.112;9.282;2022-09-09T14:29:43;94414.59;;;31.32;22.01
9855;BME280;4966;48.112;9.282;2022-09-09T14:32:09;94414.16;;;30.34;23.33
9855;BME280;4966;48.112;9.282;2022-09-09T14:34:34;94411.91;;;31.13;23.06
9855;BME280;4966;48.112;9.282;2022-09-09T14:37:00;94400.47;;;28.51;26.07
9855;BME280;4966;48.112;9.282;2022-09-09T14:39:26;94411.44;;;25.51;29.90
9855;BME280;4966;48.112;9.282;2022-09-09T14:41:51;94412.69;;;25.62;31.27
9855;BME280;4966;48.112;9.282;2022-09-09T14:44:17;94417.09;;;25.01;31.87
9855;BME280;4966;48.112;9.282;2022-09-09T14:46:44;94418.00;;;24.82;32.49
9855;BME280;4966;48.112;9.282;2022-09-09T14:49:09;94425.59;;;26.49;30.20
9855;BME280;4966;48.112;9.282;2022-09-09T14:51:37;94415.81;;;27.40;28.78
9855;BME280;4966;48.112;9.282;2022-09-09T14:54:03;94412.59;;;27.86;27.21
9855;BME280;4966;48.112;9.282;2022-09-09T14:56:33;94403.75;;;29.45;26.69
9855;BME280;4966;48.112;9.282;2022-09-09T14:59:01;94414.91;;;29.64;24.59
9855;BME280;4966;48.112;9.282;2022-09-09T15:01:28;94410.13;;;31.01;23.63
9855;BME280;4966;48.112;9.282;2022-09-09T15:04:03;94420.47;;;28.90;26.30
9855;BME280;4966;48.112;9.282;2022-09-09T15:06:30;94407.44;;;26.06;30.34
9855;BME280;4966;48.112;9.282;2022-09-09T15:08:58;94415.03;;;25.05;33.03
9855;BME280;4966;48.112;9.282;2022-09-09T15:11:26;94417.19;;;24.52;33.23
9855;BME280;4966;48.112;9.282;2022-09-09T15:13:53;94411.69;;;23.96;35.32
9855;BME280;4966;48.112;9.282;2022-09-09T15:16:19;94419.63;;;23.18;36.04
9855;BME280;4966;48.112;9.282;2022-09-09T15:18:46;94419.91;;;22.80;36.69
9855;BME280;4966;48.112;9.282;2022-09-09T15:21:17;94427.72;;;22.38;36.47
9855;BME280;4966;48.112;9.282;2022-09-09T15:23:44;94425.03;;;21.76;38.55
9855;BME280;4966;48.112;9.282;2022-09-09T15:26:10;94427.88;;;22.00;38.24